Cagliari, Italy

12:50 AM CET del 27 Febbraio 2017 (GMT +0100)
Elmas | | Change Station

Alt. 0 ft 39.26 °N, 9.05 °E | Updated 4 minutes ago

Clear
Sereno
54.7 °F
Sembra 54.7 °F
N
0.6
Vento Variabile Vento da NNO
Gusts 3.1 mph

Oggi
Massima -- | Minima -- °F
--% Possibilità di precip.
Ieri
Massima -- | Minima -- °F
Precip. -- in
Pressione 30.09 in
Visibilità -9999.0 miglia
Nuvole
Punto di rugiada 44 °F
Umidità 68%
Piovosità 0.00 in
Spessore del manto nevoso Non disponibile.
6:59 AM 6:14 PM
Luna nuova, 0% visible
METAR LIEE 262320Z 30004KT 270V350 CAVOK 13/08 Q1019
Pressione 30.09 in
Visibilità -9999.0 miglia
Nuvole
Punto di rugiada 44 °F
Umidità 68%
Piovosità 0.00 in
Spessore del manto nevoso Non disponibile.
6:59 AM 6:14 PM
Luna nuova, 0% visible
METAR LIEE 262320Z 30004KT 270V350 CAVOK 13/08 Q1019

Get Your Daily Forecast Email!

Thanks for signing up!

Be on the lookout for a verification email in your inbox.

You'll start receiving the daily forecast at 8 AM.

×

10-Day Weather Forecast

×

Almanac

Astronomia

Feb. 27, 2017 Alba Tramonto
Ora attuale
Crepuscolo civile
Crepuscolo nautico
Crepuscolo astronomico
Luna
Estensione della luce visibile
Lunghezza del giorno
Tomorrow will be .
, % of the Moon is Illuminated

Gli estremi di oggi

Massime Regione Minime Regione

Community

WunderPhotos

Upload Photos

1,962,540 foto caricate!

WunderBlog® & News

Nearby

Qualità dell'aria

  Qualità dell'aria Indice AQ Inquinante
Not available.

Profondità neve

Stazione Profondità Altitudine

Attività sismica

Città  Distanza Mag. Data & Ora
Minimo Magnitudo Mostrato è 2.5.

Temperature delle acque costiere

Località Temperatura

Stations

Stazioni meteo nelle vicinanze

Ubicazione della stazione Temp. Raffreddamento del vento Punto di rugiada Umidità Vento Precip. Alt. Aggiornato Tipo